KMCX

Details ICAO KMCX
Name WHITE CO
Region United States
Timezone America/Indiana/Indianapolis (UTC-5.0)
Plans Departing 0
Arriving 0
Stats Elevation 676 ft / 206 m (AMSL)
Location 40.708838° -86.766743°
Runways 1
Magnetic Variation 4.421° W
Sunrise 2017-12-11 13:02:36 UTC / 2017-12-11 08:02:36 Local
Sunset 2017-12-11 22:21:11 UTC / 2017-12-11 17:21:11 Local
Advertisement - Login to hide

Runways

ID Width Length Bearing (true) Bearing (mag) Surface Threshold Offset Overrun Length
18 60 ft / 18 m 4,008 ft / 1,222 m 178.76° 183.18° Asphalt 0 ft / 0 m 0 ft / 0 m
36 60 ft / 18 m 4,008 ft / 1,222 m 358.76° 3.18° Asphalt 0 ft / 0 m 0 ft / 0 m

Map

Weather


0- 5 10 15 20 25 30 35+ Temperature / ° C

Clouds and Precipitation
Forecast for 2017-12-11 18:00 UTC. Updated 11 minutes ago

Ground ~20,000 ft ~40,000 ft Winds

METAR

KMCX 111535Z AUTO 18008KT 10SM SCT085 BKN095 M01/M06 A2993 RMK AO2 T10141056

TAF

Not found

Frequencies

Unicom 122.80 MHz CTAF/UNICOM
Warning: Do not use this data for real-world aviation or navigation. No guarantee of current accuracy is given.